sensor_id;sensor_type;location;lat;lon;timestamp;temperature;humidity
11229;DHT22;5671;47.936;8.716;2023-11-19T00:00:29;4.80;93.30
11229;DHT22;5671;47.936;8.716;2023-11-19T00:02:56;4.80;93.30
11229;DHT22;5671;47.936;8.716;2023-11-19T00:05:23;4.80;93.40
11229;DHT22;5671;47.936;8.716;2023-11-19T00:07:50;4.80;93.40
11229;DHT22;5671;47.936;8.716;2023-11-19T00:10:17;4.80;93.40
11229;DHT22;5671;47.936;8.716;2023-11-19T00:12:47;4.80;93.40
11229;DHT22;5671;47.936;8.716;2023-11-19T00:15:14;4.80;93.40
11229;DHT22;5671;47.936;8.716;2023-11-19T00:17:42;4.80;93.40
11229;DHT22;5671;47.936;8.716;2023-11-19T00:20:10;4.90;93.50
11229;DHT22;5671;47.936;8.716;2023-11-19T00:22:37;4.90;93.50
11229;DHT22;5671;47.936;8.716;2023-11-19T00:25:05;4.90;93.50
11229;DHT22;5671;47.936;8.716;2023-11-19T00:27:32;4.90;93.50
11229;DHT22;5671;47.936;8.716;2023-11-19T00:29:59;4.90;93.70
11229;DHT22;5671;47.936;8.716;2023-11-19T00:32:26;5.00;93.80
11229;DHT22;5671;47.936;8.716;2023-11-19T00:34:54;5.00;93.90
11229;DHT22;5671;47.936;8.716;2023-11-19T00:37:21;5.00;94.20
11229;DHT22;5671;47.936;8.716;2023-11-19T00:39:48;5.00;94.40
11229;DHT22;5671;47.936;8.716;2023-11-19T00:42:15;5.10;94.60
11229;DHT22;5671;47.936;8.716;2023-11-19T00:44:41;5.20;94.80
11229;DHT22;5671;47.936;8.716;2023-11-19T00:47:08;5.20;94.90
11229;DHT22;5671;47.936;8.716;2023-11-19T00:49:35;5.20;95.00
11229;DHT22;5671;47.936;8.716;2023-11-19T00:52:03;5.30;94.90
11229;DHT22;5671;47.936;8.716;2023-11-19T00:54:31;5.30;95.00
11229;DHT22;5671;47.936;8.716;2023-11-19T00:56:58;5.30;95.00
11229;DHT22;5671;47.936;8.716;2023-11-19T00:59:27;5.30;95.00
11229;DHT22;5671;47.936;8.716;2023-11-19T01:01:54;5.40;94.90
11229;DHT22;5671;47.936;8.716;2023-11-19T01:04:22;5.40;94.90
11229;DHT22;5671;47.936;8.716;2023-11-19T01:06:49;5.40;94.80
11229;DHT22;5671;47.936;8.716;2023-11-19T01:09:17;5.40;94.80
11229;DHT22;5671;47.936;8.716;2023-11-19T01:11:44;5.50;94.70
11229;DHT22;5671;47.936;8.716;2023-11-19T01:14:12;5.50;94.70
11229;DHT22;5671;47.936;8.716;2023-11-19T01:16:39;5.50;94.70
11229;DHT22;5671;47.936;8.716;2023-11-19T01:19:06;5.60;94.70
11229;DHT22;5671;47.936;8.716;2023-11-19T01:21:33;5.60;94.70
11229;DHT22;5671;47.936;8.716;2023-11-19T01:23:59;5.60;94.70
11229;DHT22;5671;47.936;8.716;2023-11-19T01:26:29;5.60;94.70
11229;DHT22;5671;47.936;8.716;2023-11-19T01:28:56;5.60;94.70
11229;DHT22;5671;47.936;8.716;2023-11-19T01:31:23;5.60;94.60
11229;DHT22;5671;47.936;8.716;2023-11-19T01:33:50;5.70;94.60
11229;DHT22;5671;47.936;8.716;2023-11-19T01:36:16;5.60;94.50
11229;DHT22;5671;47.936;8.716;2023-11-19T01:38:43;5.70;94.50
11229;DHT22;5671;47.936;8.716;2023-11-19T01:41:10;5.70;94.50
11229;DHT22;5671;47.936;8.716;2023-11-19T01:43:39;5.70;94.50
11229;DHT22;5671;47.936;8.716;2023-11-19T01:46:06;5.70;94.50
11229;DHT22;5671;47.936;8.716;2023-11-19T01:48:36;5.70;94.40
11229;DHT22;5671;47.936;8.716;2023-11-19T01:51:05;5.80;94.40
11229;DHT22;5671;47.936;8.716;2023-11-19T01:53:34;5.80;94.40
11229;DHT22;5671;47.936;8.716;2023-11-19T01:56:02;5.80;94.40
11229;DHT22;5671;47.936;8.716;2023-11-19T01:58:30;5.80;94.20
11229;DHT22;5671;47.936;8.716;2023-11-19T02:00:58;5.80;94.20
11229;DHT22;5671;47.936;8.716;2023-11-19T02:03:26;5.80;94.20
11229;DHT22;5671;47.936;8.716;2023-11-19T02:05:54;5.80;94.20
11229;DHT22;5671;47.936;8.716;2023-11-19T02:08:21;5.80;94.20
11229;DHT22;5671;47.936;8.716;2023-11-19T02:10:48;5.90;94.30
11229;DHT22;5671;47.936;8.716;2023-11-19T02:13:15;5.90;94.20
11229;DHT22;5671;47.936;8.716;2023-11-19T02:15:42;5.90;94.20
11229;DHT22;5671;47.936;8.716;2023-11-19T02:18:21;5.90;94.20
11229;DHT22;5671;47.936;8.716;2023-11-19T02:20:49;5.90;94.10
11229;DHT22;5671;47.936;8.716;2023-11-19T02:23:16;5.90;94.00
11229;DHT22;5671;47.936;8.716;2023-11-19T02:25:47;5.90;94.00
11229;DHT22;5671;47.936;8.716;2023-11-19T02:28:17;5.90;94.00
11229;DHT22;5671;47.936;8.716;2023-11-19T02:30:44;5.90;94.20
11229;DHT22;5671;47.936;8.716;2023-11-19T02:33:11;5.90;94.30
11229;DHT22;5671;47.936;8.716;2023-11-19T02:35:38;6.00;94.40
11229;DHT22;5671;47.936;8.716;2023-11-19T02:38:06;6.00;94.70
11229;DHT22;5671;47.936;8.716;2023-11-19T02:40:33;6.10;94.80
11229;DHT22;5671;47.936;8.716;2023-11-19T02:43:00;6.10;95.10
11229;DHT22;5671;47.936;8.716;2023-11-19T02:45:31;6.10;95.20
11229;DHT22;5671;47.936;8.716;2023-11-19T02:47:58;6.10;95.30
11229;DHT22;5671;47.936;8.716;2023-11-19T02:50:27;6.20;95.40
11229;DHT22;5671;47.936;8.716;2023-11-19T02:52:55;6.20;95.50
11229;DHT22;5671;47.936;8.716;2023-11-19T02:55:23;6.30;95.70
11229;DHT22;5671;47.936;8.716;2023-11-19T02:57:50;6.30;95.70
11229;DHT22;5671;47.936;8.716;2023-11-19T03:00:19;6.30;95.70
11229;DHT22;5671;47.936;8.716;2023-11-19T03:02:50;6.30;95.60
11229;DHT22;5671;47.936;8.716;2023-11-19T03:05:25;6.30;95.50
11229;DHT22;5671;47.936;8.716;2023-11-19T03:07:55;6.30;95.50
11229;DHT22;5671;47.936;8.716;2023-11-19T03:10:22;6.40;95.50
11229;DHT22;5671;47.936;8.716;2023-11-19T03:12:49;6.40;95.70
11229;DHT22;5671;47.936;8.716;2023-11-19T03:15:16;6.50;95.90
11229;DHT22;5671;47.936;8.716;2023-11-19T03:17:43;6.50;96.00
11229;DHT22;5671;47.936;8.716;2023-11-19T03:20:11;6.50;96.10
11229;DHT22;5671;47.936;8.716;2023-11-19T03:22:41;6.60;96.20
11229;DHT22;5671;47.936;8.716;2023-11-19T03:25:08;6.60;96.20
11229;DHT22;5671;47.936;8.716;2023-11-19T03:27:35;6.60;96.30
11229;DHT22;5671;47.936;8.716;2023-11-19T03:30:04;6.70;96.20
11229;DHT22;5671;47.936;8.716;2023-11-19T03:32:31;6.70;96.20
11229;DHT22;5671;47.936;8.716;2023-11-19T03:35:00;6.70;96.20
11229;DHT22;5671;47.936;8.716;2023-11-19T03:37:28;6.80;96.20
11229;DHT22;5671;47.936;8.716;2023-11-19T03:39:56;6.80;96.10
11229;DHT22;5671;47.936;8.716;2023-11-19T03:42:25;6.80;96.10
11229;DHT22;5671;47.936;8.716;2023-11-19T03:44:52;6.80;96.00
11229;DHT22;5671;47.936;8.716;2023-11-19T03:47:19;6.80;95.90
11229;DHT22;5671;47.936;8.716;2023-11-19T03:49:48;6.90;95.70
11229;DHT22;5671;47.936;8.716;2023-11-19T03:52:15;6.90;95.60
11229;DHT22;5671;47.936;8.716;2023-11-19T03:54:44;6.90;95.50
11229;DHT22;5671;47.936;8.716;2023-11-19T03:57:11;6.90;95.30
11229;DHT22;5671;47.936;8.716;2023-11-19T03:59:38;6.90;95.20
11229;DHT22;5671;47.936;8.716;2023-11-19T04:02:05;6.90;95.10
11229;DHT22;5671;47.936;8.716;2023-11-19T04:04:32;6.90;95.00
11229;DHT22;5671;47.936;8.716;2023-11-19T04:06:59;6.90;95.00
11229;DHT22;5671;47.936;8.716;2023-11-19T04:09:26;7.00;95.00
11229;DHT22;5671;47.936;8.716;2023-11-19T04:11:54;7.00;95.10
11229;DHT22;5671;47.936;8.716;2023-11-19T04:14:21;7.00;95.00
11229;DHT22;5671;47.936;8.716;2023-11-19T04:16:48;7.00;94.90
11229;DHT22;5671;47.936;8.716;2023-11-19T04:19:15;6.90;94.80
11229;DHT22;5671;47.936;8.716;2023-11-19T04:21:42;7.00;94.70
11229;DHT22;5671;47.936;8.716;2023-11-19T04:24:10;7.00;94.60
11229;DHT22;5671;47.936;8.716;2023-11-19T04:26:40;7.00;94.50
11229;DHT22;5671;47.936;8.716;2023-11-19T04:29:10;7.00;94.50
11229;DHT22;5671;47.936;8.716;2023-11-19T04:31:38;7.00;94.50
11229;DHT22;5671;47.936;8.716;2023-11-19T04:34:05;7.00;94.50
11229;DHT22;5671;47.936;8.716;2023-11-19T04:36:31;7.00;94.50
11229;DHT22;5671;47.936;8.716;2023-11-19T04:38:58;7.00;94.50
11229;DHT22;5671;47.936;8.716;2023-11-19T04:41:26;7.00;94.60
11229;DHT22;5671;47.936;8.716;2023-11-19T04:43:53;7.00;94.70
11229;DHT22;5671;47.936;8.716;2023-11-19T04:46:21;7.10;94.80
11229;DHT22;5671;47.936;8.716;2023-11-19T04:48:49;7.10;94.80
11229;DHT22;5671;47.936;8.716;2023-11-19T04:51:16;7.10;94.90
11229;DHT22;5671;47.936;8.716;2023-11-19T04:53:42;7.10;94.80
11229;DHT22;5671;47.936;8.716;2023-11-19T04:56:10;7.10;94.90
11229;DHT22;5671;47.936;8.716;2023-11-19T04:58:37;7.10;94.80
11229;DHT22;5671;47.936;8.716;2023-11-19T05:01:04;7.10;94.70
11229;DHT22;5671;47.936;8.716;2023-11-19T05:03:32;7.10;94.70
11229;DHT22;5671;47.936;8.716;2023-11-19T05:05:59;7.10;94.70
11229;DHT22;5671;47.936;8.716;2023-11-19T05:08:26;7.10;94.60
11229;DHT22;5671;47.936;8.716;2023-11-19T05:10:53;7.10;94.50
11229;DHT22;5671;47.936;8.716;2023-11-19T05:13:20;7.10;94.50
11229;DHT22;5671;47.936;8.716;2023-11-19T05:15:47;7.10;94.50
11229;DHT22;5671;47.936;8.716;2023-11-19T05:18:14;7.10;94.50
11229;DHT22;5671;47.936;8.716;2023-11-19T05:20:42;7.10;94.40
11229;DHT22;5671;47.936;8.716;2023-11-19T05:23:09;7.20;94.40
11229;DHT22;5671;47.936;8.716;2023-11-19T05:25:37;7.20;94.40
11229;DHT22;5671;47.936;8.716;2023-11-19T05:28:03;7.20;94.40
11229;DHT22;5671;47.936;8.716;2023-11-19T05:30:30;7.10;94.30
11229;DHT22;5671;47.936;8.716;2023-11-19T05:32:57;7.20;94.20
11229;DHT22;5671;47.936;8.716;2023-11-19T05:35:24;7.20;94.10
11229;DHT22;5671;47.936;8.716;2023-11-19T05:37:52;7.20;94.10
11229;DHT22;5671;47.936;8.716;2023-11-19T05:40:19;7.20;94.10
11229;DHT22;5671;47.936;8.716;2023-11-19T05:42:46;7.20;94.10
11229;DHT22;5671;47.936;8.716;2023-11-19T05:45:13;7.20;94.10
11229;DHT22;5671;47.936;8.716;2023-11-19T05:47:40;7.20;94.10
11229;DHT22;5671;47.936;8.716;2023-11-19T05:50:08;7.20;94.00
11229;DHT22;5671;47.936;8.716;2023-11-19T05:52:35;7.20;94.00
11229;DHT22;5671;47.936;8.716;2023-11-19T05:55:04;7.20;94.00
11229;DHT22;5671;47.936;8.716;2023-11-19T05:57:35;7.20;93.90
11229;DHT22;5671;47.936;8.716;2023-11-19T06:00:02;7.20;93.80
11229;DHT22;5671;47.936;8.716;2023-11-19T06:02:32;7.20;93.80
11229;DHT22;5671;47.936;8.716;2023-11-19T06:04:59;7.20;93.70
11229;DHT22;5671;47.936;8.716;2023-11-19T06:07:26;7.20;93.80
11229;DHT22;5671;47.936;8.716;2023-11-19T06:09:53;7.20;93.80
11229;DHT22;5671;47.936;8.716;2023-11-19T06:12:21;7.20;93.80
11229;DHT22;5671;47.936;8.716;2023-11-19T06:14:48;7.20;93.90
11229;DHT22;5671;47.936;8.716;2023-11-19T06:17:15;7.30;94.00
11229;DHT22;5671;47.936;8.716;2023-11-19T06:19:42;7.30;94.00
11229;DHT22;5671;47.936;8.716;2023-11-19T06:22:10;7.30;94.10
11229;DHT22;5671;47.936;8.716;2023-11-19T06:24:37;7.30;94.20
11229;DHT22;5671;47.936;8.716;2023-11-19T06:27:04;7.30;94.20
11229;DHT22;5671;47.936;8.716;2023-11-19T06:29:32;7.30;94.30
11229;DHT22;5671;47.936;8.716;2023-11-19T06:31:59;7.30;94.30
11229;DHT22;5671;47.936;8.716;2023-11-19T06:34:26;7.30;94.40
11229;DHT22;5671;47.936;8.716;2023-11-19T06:36:52;7.30;94.50
11229;DHT22;5671;47.936;8.716;2023-11-19T06:39:19;7.30;94.50
11229;DHT22;5671;47.936;8.716;2023-11-19T06:41:47;7.40;94.60
11229;DHT22;5671;47.936;8.716;2023-11-19T06:44:14;7.40;94.60
11229;DHT22;5671;47.936;8.716;2023-11-19T06:46:42;7.40;94.60
11229;DHT22;5671;47.936;8.716;2023-11-19T06:49:09;7.40;94.60
11229;DHT22;5671;47.936;8.716;2023-11-19T06:51:36;7.40;94.60
11229;DHT22;5671;47.936;8.716;2023-11-19T06:54:07;7.40;94.50
11229;DHT22;5671;47.936;8.716;2023-11-19T06:56:33;7.40;94.60
11229;DHT22;5671;47.936;8.716;2023-11-19T06:59:00;7.40;94.60
11229;DHT22;5671;47.936;8.716;2023-11-19T07:01:27;7.40;94.60
11229;DHT22;5671;47.936;8.716;2023-11-19T07:03:55;7.40;94.60
11229;DHT22;5671;47.936;8.716;2023-11-19T07:06:23;7.40;94.50
11229;DHT22;5671;47.936;8.716;2023-11-19T07:08:50;7.40;94.40
11229;DHT22;5671;47.936;8.716;2023-11-19T07:11:16;7.40;94.30
11229;DHT22;5671;47.936;8.716;2023-11-19T07:13:43;7.40;94.40
11229;DHT22;5671;47.936;8.716;2023-11-19T07:16:11;7.50;94.40
11229;DHT22;5671;47.936;8.716;2023-11-19T07:18:40;7.50;94.50
11229;DHT22;5671;47.936;8.716;2023-11-19T07:21:08;7.50;94.70
11229;DHT22;5671;47.936;8.716;2023-11-19T07:23:36;7.50;94.90
11229;DHT22;5671;47.936;8.716;2023-11-19T07:26:05;7.50;95.00
11229;DHT22;5671;47.936;8.716;2023-11-19T07:28:33;7.50;95.00
11229;DHT22;5671;47.936;8.716;2023-11-19T07:31:00;7.50;95.00
11229;DHT22;5671;47.936;8.716;2023-11-19T07:33:27;7.50;95.20
11229;DHT22;5671;47.936;8.716;2023-11-19T07:35:55;7.50;95.20
11229;DHT22;5671;47.936;8.716;2023-11-19T07:38:23;7.60;95.20
11229;DHT22;5671;47.936;8.716;2023-11-19T07:40:50;7.60;95.30
11229;DHT22;5671;47.936;8.716;2023-11-19T07:43:17;7.60;95.50
11229;DHT22;5671;47.936;8.716;2023-11-19T07:45:44;7.60;95.60
11229;DHT22;5671;47.936;8.716;2023-11-19T07:48:11;7.60;95.80
11229;DHT22;5671;47.936;8.716;2023-11-19T07:50:39;7.60;95.90
11229;DHT22;5671;47.936;8.716;2023-11-19T07:53:07;7.70;96.10
11229;DHT22;5671;47.936;8.716;2023-11-19T07:55:35;7.70;96.30
11229;DHT22;5671;47.936;8.716;2023-11-19T07:58:02;7.80;96.50
11229;DHT22;5671;47.936;8.716;2023-11-19T08:00:29;7.80;96.60
11229;DHT22;5671;47.936;8.716;2023-11-19T08:02:56;7.80;96.80
11229;DHT22;5671;47.936;8.716;2023-11-19T08:05:23;7.90;96.80
11229;DHT22;5671;47.936;8.716;2023-11-19T08:07:50;7.90;96.80
11229;DHT22;5671;47.936;8.716;2023-11-19T08:10:18;7.90;96.80
11229;DHT22;5671;47.936;8.716;2023-11-19T08:12:46;8.00;96.80
11229;DHT22;5671;47.936;8.716;2023-11-19T08:15:13;8.00;96.70
11229;DHT22;5671;47.936;8.716;2023-11-19T08:17:41;8.00;96.60
11229;DHT22;5671;47.936;8.716;2023-11-19T08:20:08;8.00;96.50
11229;DHT22;5671;47.936;8.716;2023-11-19T08:22:36;8.10;96.50
11229;DHT22;5671;47.936;8.716;2023-11-19T08:25:03;8.10;96.40
11229;DHT22;5671;47.936;8.716;2023-11-19T08:27:30;8.10;96.40
11229;DHT22;5671;47.936;8.716;2023-11-19T08:29:58;8.10;96.30
11229;DHT22;5671;47.936;8.716;2023-11-19T08:32:25;8.20;96.40
11229;DHT22;5671;47.936;8.716;2023-11-19T08:34:52;8.20;96.30
11229;DHT22;5671;47.936;8.716;2023-11-19T08:37:19;8.20;96.30
11229;DHT22;5671;47.936;8.716;2023-11-19T08:39:47;8.30;96.20
11229;DHT22;5671;47.936;8.716;2023-11-19T08:42:14;8.30;96.30
11229;DHT22;5671;47.936;8.716;2023-11-19T08:44:41;8.40;96.30
11229;DHT22;5671;47.936;8.716;2023-11-19T08:47:11;8.40;96.30
11229;DHT22;5671;47.936;8.716;2023-11-19T08:49:38;8.40;96.30
11229;DHT22;5671;47.936;8.716;2023-11-19T08:52:05;8.50;96.20
11229;DHT22;5671;47.936;8.716;2023-11-19T08:54:32;8.50;96.10
11229;DHT22;5671;47.936;8.716;2023-11-19T08:57:02;8.50;96.00
11229;DHT22;5671;47.936;8.716;2023-11-19T08:59:29;8.60;96.10
11229;DHT22;5671;47.936;8.716;2023-11-19T09:01:56;8.60;96.00
11229;DHT22;5671;47.936;8.716;2023-11-19T09:04:25;8.70;96.10
11229;DHT22;5671;47.936;8.716;2023-11-19T09:06:51;8.70;96.10
11229;DHT22;5671;47.936;8.716;2023-11-19T09:09:18;8.70;96.10
11229;DHT22;5671;47.936;8.716;2023-11-19T09:11:45;8.70;96.00
11229;DHT22;5671;47.936;8.716;2023-11-19T09:14:12;8.80;96.00
11229;DHT22;5671;47.936;8.716;2023-11-19T09:16:39;8.80;95.90
11229;DHT22;5671;47.936;8.716;2023-11-19T09:19:05;8.80;95.90
11229;DHT22;5671;47.936;8.716;2023-11-19T09:21:34;8.90;96.00
11229;DHT22;5671;47.936;8.716;2023-11-19T09:24:04;9.00;96.00
11229;DHT22;5671;47.936;8.716;2023-11-19T09:26:33;9.00;95.90
11229;DHT22;5671;47.936;8.716;2023-11-19T09:29:00;9.10;95.80
11229;DHT22;5671;47.936;8.716;2023-11-19T09:31:26;9.20;95.70
11229;DHT22;5671;47.936;8.716;2023-11-19T09:33:53;9.30;95.90
11229;DHT22;5671;47.936;8.716;2023-11-19T09:36:20;9.30;95.90
11229;DHT22;5671;47.936;8.716;2023-11-19T09:38:48;9.40;95.80
11229;DHT22;5671;47.936;8.716;2023-11-19T09:41:16;9.40;95.40
11229;DHT22;5671;47.936;8.716;2023-11-19T09:43:45;9.50;95.40
11229;DHT22;5671;47.936;8.716;2023-11-19T09:46:14;9.60;95.00
11229;DHT22;5671;47.936;8.716;2023-11-19T09:48:42;9.60;94.70
11229;DHT22;5671;47.936;8.716;2023-11-19T09:51:10;9.70;94.80
11229;DHT22;5671;47.936;8.716;2023-11-19T09:53:38;9.80;94.40
11229;DHT22;5671;47.936;8.716;2023-11-19T09:56:07;9.80;94.00
11229;DHT22;5671;47.936;8.716;2023-11-19T09:58:34;10.00;93.50
11229;DHT22;5671;47.936;8.716;2023-11-19T10:01:01;10.10;92.70
11229;DHT22;5671;47.936;8.716;2023-11-19T10:03:33;10.10;92.10
11229;DHT22;5671;47.936;8.716;2023-11-19T10:06:01;10.20;91.40
11229;DHT22;5671;47.936;8.716;2023-11-19T10:08:28;10.20;91.30
11229;DHT22;5671;47.936;8.716;2023-11-19T10:10:54;10.20;91.00
11229;DHT22;5671;47.936;8.716;2023-11-19T10:13:27;10.20;91.50
11229;DHT22;5671;47.936;8.716;2023-11-19T10:15:55;10.20;91.70
11229;DHT22;5671;47.936;8.716;2023-11-19T10:18:24;10.30;92.10
11229;DHT22;5671;47.936;8.716;2023-11-19T10:20:52;10.40;92.40
11229;DHT22;5671;47.936;8.716;2023-11-19T10:23:20;10.40;92.10
11229;DHT22;5671;47.936;8.716;2023-11-19T10:25:47;10.50;91.90
11229;DHT22;5671;47.936;8.716;2023-11-19T10:28:15;10.50;91.80
11229;DHT22;5671;47.936;8.716;2023-11-19T10:30:44;10.60;92.30
11229;DHT22;5671;47.936;8.716;2023-11-19T10:33:12;10.70;92.40
11229;DHT22;5671;47.936;8.716;2023-11-19T10:35:53;10.70;92.20
11229;DHT22;5671;47.936;8.716;2023-11-19T10:38:20;10.70;92.00
11229;DHT22;5671;47.936;8.716;2023-11-19T10:40:48;10.70;91.50
11229;DHT22;5671;47.936;8.716;2023-11-19T10:43:15;10.80;90.90
11229;DHT22;5671;47.936;8.716;2023-11-19T10:45:43;10.80;90.40
11229;DHT22;5671;47.936;8.716;2023-11-19T10:48:10;10.80;90.30
11229;DHT22;5671;47.936;8.716;2023-11-19T10:50:39;10.90;90.40
11229;DHT22;5671;47.936;8.716;2023-11-19T10:53:07;10.90;90.20
11229;DHT22;5671;47.936;8.716;2023-11-19T10:55:36;11.00;89.80
11229;DHT22;5671;47.936;8.716;2023-11-19T10:58:04;11.10;88.90
11229;DHT22;5671;47.936;8.716;2023-11-19T11:00:38;11.10;87.90
11229;DHT22;5671;47.936;8.716;2023-11-19T11:03:10;11.20;88.60
11229;DHT22;5671;47.936;8.716;2023-11-19T11:05:38;11.20;88.20
11229;DHT22;5671;47.936;8.716;2023-11-19T11:08:06;11.20;87.60
11229;DHT22;5671;47.936;8.716;2023-11-19T11:10:39;11.30;86.20
11229;DHT22;5671;47.936;8.716;2023-11-19T11:13:09;11.40;85.50
11229;DHT22;5671;47.936;8.716;2023-11-19T11:15:37;11.40;85.30
11229;DHT22;5671;47.936;8.716;2023-11-19T11:18:08;11.40;85.70
11229;DHT22;5671;47.936;8.716;2023-11-19T11:20:36;11.40;85.40
11229;DHT22;5671;47.936;8.716;2023-11-19T11:26:30;11.60;84.40
11229;DHT22;5671;47.936;8.716;2023-11-19T11:29:05;11.60;84.90
11229;DHT22;5671;47.936;8.716;2023-11-19T11:31:39;11.70;84.10
11229;DHT22;5671;47.936;8.716;2023-11-19T11:34:32;11.80;83.20
11229;DHT22;5671;47.936;8.716;2023-11-19T11:37:10;11.80;81.80
11229;DHT22;5671;47.936;8.716;2023-11-19T11:39:41;11.90;81.70
11229;DHT22;5671;47.936;8.716;2023-11-19T11:42:37;11.90;81.50
11229;DHT22;5671;47.936;8.716;2023-11-19T11:45:05;11.90;81.70
11229;DHT22;5671;47.936;8.716;2023-11-19T11:48:12;11.90;80.10
11229;DHT22;5671;47.936;8.716;2023-11-19T11:50:51;11.90;80.50
11229;DHT22;5671;47.936;8.716;2023-11-19T11:53:19;11.90;80.50
11229;DHT22;5671;47.936;8.716;2023-11-19T11:55:55;11.90;80.50
11229;DHT22;5671;47.936;8.716;2023-11-19T11:58:32;12.00;81.00
11229;DHT22;5671;47.936;8.716;2023-11-19T12:01:01;12.00;80.10
11229;DHT22;5671;47.936;8.716;2023-11-19T12:03:29;12.00;80.50
11229;DHT22;5671;47.936;8.716;2023-11-19T12:05:58;11.90;79.90
11229;DHT22;5671;47.936;8.716;2023-11-19T12:08:27;11.90;79.50
11229;DHT22;5671;47.936;8.716;2023-11-19T12:10:55;11.90;79.70
11229;DHT22;5671;47.936;8.716;2023-11-19T12:13:24;11.90;79.40
11229;DHT22;5671;47.936;8.716;2023-11-19T12:16:10;11.90;79.10
11229;DHT22;5671;47.936;8.716;2023-11-19T12:18:39;12.00;78.90
11229;DHT22;5671;47.936;8.716;2023-11-19T12:21:10;12.00;79.40
11229;DHT22;5671;47.936;8.716;2023-11-19T12:23:45;12.00;80.60
11229;DHT22;5671;47.936;8.716;2023-11-19T12:26:35;12.00;80.30
11229;DHT22;5671;47.936;8.716;2023-11-19T12:29:02;12.00;80.90
11229;DHT22;5671;47.936;8.716;2023-11-19T12:31:33;12.00;81.30
11229;DHT22;5671;47.936;8.716;2023-11-19T12:34:08;12.00;81.40
11229;DHT22;5671;47.936;8.716;2023-11-19T12:36:39;12.00;81.30
11229;DHT22;5671;47.936;8.716;2023-11-19T12:39:07;12.00;82.20
11229;DHT22;5671;47.936;8.716;2023-11-19T12:41:49;12.00;82.30
11229;DHT22;5671;47.936;8.716;2023-11-19T12:44:16;12.00;82.40
11229;DHT22;5671;47.936;8.716;2023-11-19T12:46:43;12.00;82.30
11229;DHT22;5671;47.936;8.716;2023-11-19T12:49:11;12.00;82.90
11229;DHT22;5671;47.936;8.716;2023-11-19T12:51:39;12.00;83.10
11229;DHT22;5671;47.936;8.716;2023-11-19T12:54:06;12.00;83.10
11229;DHT22;5671;47.936;8.716;2023-11-19T12:56:33;11.90;83.20
11229;DHT22;5671;47.936;8.716;2023-11-19T12:59:10;11.90;83.10
11229;DHT22;5671;47.936;8.716;2023-11-19T13:01:38;11.90;83.30
11229;DHT22;5671;47.936;8.716;2023-11-19T13:04:16;11.90;82.90
11229;DHT22;5671;47.936;8.716;2023-11-19T13:06:46;11.90;83.10
11229;DHT22;5671;47.936;8.716;2023-11-19T13:09:22;11.80;83.30
11229;DHT22;5671;47.936;8.716;2023-11-19T13:11:49;11.80;83.40
11229;DHT22;5671;47.936;8.716;2023-11-19T13:14:17;11.70;83.00
11229;DHT22;5671;47.936;8.716;2023-11-19T13:16:44;11.70;83.20
11229;DHT22;5671;47.936;8.716;2023-11-19T13:19:12;11.70;83.10
11229;DHT22;5671;47.936;8.716;2023-11-19T13:21:39;11.70;83.10
11229;DHT22;5671;47.936;8.716;2023-11-19T13:24:08;11.70;83.40
11229;DHT22;5671;47.936;8.716;2023-11-19T13:26:35;11.70;83.30
11229;DHT22;5671;47.936;8.716;2023-11-19T13:29:02;11.70;83.80
11229;DHT22;5671;47.936;8.716;2023-11-19T13:31:29;11.70;83.30
11229;DHT22;5671;47.936;8.716;2023-11-19T13:33:56;11.80;83.20
11229;DHT22;5671;47.936;8.716;2023-11-19T13:36:23;11.70;83.30
11229;DHT22;5671;47.936;8.716;2023-11-19T13:38:51;11.70;83.70
11229;DHT22;5671;47.936;8.716;2023-11-19T13:41:25;11.70;83.70
11229;DHT22;5671;47.936;8.716;2023-11-19T13:43:52;11.60;84.10
11229;DHT22;5671;47.936;8.716;2023-11-19T13:46:19;11.60;84.30
11229;DHT22;5671;47.936;8.716;2023-11-19T13:48:46;11.60;84.40
11229;DHT22;5671;47.936;8.716;2023-11-19T13:51:15;11.60;84.40
11229;DHT22;5671;47.936;8.716;2023-11-19T13:53:42;11.60;84.70
11229;DHT22;5671;47.936;8.716;2023-11-19T13:56:09;11.70;84.80
11229;DHT22;5671;47.936;8.716;2023-11-19T13:58:37;11.60;85.00
11229;DHT22;5671;47.936;8.716;2023-11-19T14:01:06;11.60;85.00
11229;DHT22;5671;47.936;8.716;2023-11-19T14:03:32;11.60;84.80
11229;DHT22;5671;47.936;8.716;2023-11-19T14:05:59;11.60;84.50
11229;DHT22;5671;47.936;8.716;2023-11-19T14:08:26;11.70;84.30
11229;DHT22;5671;47.936;8.716;2023-11-19T14:10:53;11.60;84.40
11229;DHT22;5671;47.936;8.716;2023-11-19T14:13:22;11.60;84.10
11229;DHT22;5671;47.936;8.716;2023-11-19T14:15:50;11.60;83.60
11229;DHT22;5671;47.936;8.716;2023-11-19T14:18:17;11.60;82.80
11229;DHT22;5671;47.936;8.716;2023-11-19T14:20:44;11.60;82.50
11229;DHT22;5671;47.936;8.716;2023-11-19T14:23:11;11.60;81.90
11229;DHT22;5671;47.936;8.716;2023-11-19T14:25:38;11.60;81.80
11229;DHT22;5671;47.936;8.716;2023-11-19T14:28:05;11.60;79.70
11229;DHT22;5671;47.936;8.716;2023-11-19T14:30:31;11.60;79.60
11229;DHT22;5671;47.936;8.716;2023-11-19T14:33:00;11.60;79.10
11229;DHT22;5671;47.936;8.716;2023-11-19T14:35:28;11.60;80.60
11229;DHT22;5671;47.936;8.716;2023-11-19T14:37:58;11.50;79.00
11229;DHT22;5671;47.936;8.716;2023-11-19T14:40:25;11.50;79.10
11229;DHT22;5671;47.936;8.716;2023-11-19T14:42:51;11.50;79.20
11229;DHT22;5671;47.936;8.716;2023-11-19T14:45:18;11.50;79.10
11229;DHT22;5671;47.936;8.716;2023-11-19T14:47:45;11.50;79.50
11229;DHT22;5671;47.936;8.716;2023-11-19T14:50:13;11.40;79.80
11229;DHT22;5671;47.936;8.716;2023-11-19T14:52:40;11.40;79.20
11229;DHT22;5671;47.936;8.716;2023-11-19T14:55:11;11.30;79.50
11229;DHT22;5671;47.936;8.716;2023-11-19T14:57:39;11.30;79.70
11229;DHT22;5671;47.936;8.716;2023-11-19T15:03:10;11.20;79.30
11229;DHT22;5671;47.936;8.716;2023-11-19T15:05:39;11.20;79.10
11229;DHT22;5671;47.936;8.716;2023-11-19T15:08:08;11.10;79.30
11229;DHT22;5671;47.936;8.716;2023-11-19T15:10:44;11.10;78.50
11229;DHT22;5671;47.936;8.716;2023-11-19T15:13:14;11.00;77.50
11229;DHT22;5671;47.936;8.716;2023-11-19T15:15:44;11.00;76.30
11229;DHT22;5671;47.936;8.716;2023-11-19T15:18:11;10.90;74.40
11229;DHT22;5671;47.936;8.716;2023-11-19T15:20:39;10.80;74.60
11229;DHT22;5671;47.936;8.716;2023-11-19T15:23:06;10.70;74.20
11229;DHT22;5671;47.936;8.716;2023-11-19T15:25:34;10.70;73.20
11229;DHT22;5671;47.936;8.716;2023-11-19T15:28:02;10.60;73.20
11229;DHT22;5671;47.936;8.716;2023-11-19T15:30:29;10.50;72.50
11229;DHT22;5671;47.936;8.716;2023-11-19T15:32:56;10.40;72.90
11229;DHT22;5671;47.936;8.716;2023-11-19T15:35:23;10.40;73.10
11229;DHT22;5671;47.936;8.716;2023-11-19T15:37:51;10.30;72.90
11229;DHT22;5671;47.936;8.716;2023-11-19T15:40:18;10.30;73.30
11229;DHT22;5671;47.936;8.716;2023-11-19T15:42:46;10.20;73.60
11229;DHT22;5671;47.936;8.716;2023-11-19T15:45:13;10.20;73.90
11229;DHT22;5671;47.936;8.716;2023-11-19T15:47:42;10.10;74.30
11229;DHT22;5671;47.936;8.716;2023-11-19T15:50:09;10.00;74.30
11229;DHT22;5671;47.936;8.716;2023-11-19T15:52:36;10.00;74.80
11229;DHT22;5671;47.936;8.716;2023-11-19T15:55:05;10.00;74.90
11229;DHT22;5671;47.936;8.716;2023-11-19T15:57:32;9.90;75.20
11229;DHT22;5671;47.936;8.716;2023-11-19T15:59:59;9.80;75.10
11229;DHT22;5671;47.936;8.716;2023-11-19T16:02:26;9.80;75.30
11229;DHT22;5671;47.936;8.716;2023-11-19T16:04:53;9.70;75.70
11229;DHT22;5671;47.936;8.716;2023-11-19T16:07:23;9.70;75.80